Time;durP1;ratioP1;P1;durP2;ratioP2;P2;SDS_P1;SDS_P2;PMS_P1;PMS_P2;Temp;Humidity;BMP_temperature;BMP_pressure;BME280_temperature;BME280_humidity;BME280_pressure;Samples;Min_cycle;Max_cycle;Signal;HPM_P1;HPM_P2
2023/09/22 00:02:13;;;;;;;1.90;1.40;;;15.10;90.80;;;;;;6183837;23;20013;-78
2023/09/22 00:04:39;;;;;;;2.15;1.70;;;15.10;90.80;;;;;;6159476;23;19997;-78
2023/09/22 00:07:06;;;;;;;3.20;1.55;;;15.10;90.80;;;;;;6160404;23;19997;-78
2023/09/22 00:09:32;;;;;;;2.40;1.65;;;15.10;90.80;;;;;;6163205;23;20444;-78
2023/09/22 00:11:59;;;;;;;2.38;1.77;;;15.10;90.80;;;;;;6187049;23;20005;-78
2023/09/22 00:14:26;;;;;;;2.75;1.73;;;15.10;90.80;;;;;;6183414;23;20499;-78
2023/09/22 00:16:52;;;;;;;2.58;1.92;;;15.10;90.80;;;;;;6159485;23;20059;-78
2023/09/22 00:19:18;;;;;;;2.80;2.05;;;15.10;90.80;;;;;;6134447;23;20080;-78
2023/09/22 00:21:44;;;;;;;2.60;2.00;;;15.00;90.80;;;;;;6183239;23;20426;-78
2023/09/22 00:24:09;;;;;;;3.17;1.98;;;15.00;90.80;;;;;;6184051;23;20075;-78
2023/09/22 00:26:35;;;;;;;2.90;1.60;;;14.90;90.80;;;;;;6182706;23;20016;-78
2023/09/22 00:29:01;;;;;;;2.95;1.88;;;15.00;90.80;;;;;;6158138;23;20056;-78
2023/09/22 00:31:27;;;;;;;2.35;1.70;;;15.10;90.90;;;;;;6182402;23;20001;-77
2023/09/22 00:33:53;;;;;;;3.00;1.88;;;15.00;90.90;;;;;;6182467;23;20020;-78
2023/09/22 00:36:19;;;;;;;3.60;2.03;;;14.90;90.80;;;;;;6133970;23;20005;-78
2023/09/22 00:38:44;;;;;;;3.95;2.47;;;14.90;90.80;;;;;;6158973;23;20429;-78
2023/09/22 00:41:10;;;;;;;4.18;2.53;;;14.90;90.80;;;;;;6182939;23;20001;-78
2023/09/22 00:43:36;;;;;;;3.72;2.50;;;14.90;90.80;;;;;;6183395;23;20024;-77
2023/09/22 00:46:02;;;;;;;3.80;2.38;;;14.90;90.90;;;;;;6186426;23;20437;-78
2023/09/22 00:48:31;;;;;;;3.22;2.17;;;14.90;90.80;;;;;;6183592;23;20009;-77
2023/09/22 00:50:58;;;;;;;4.05;2.28;;;14.80;90.80;;;;;;6159486;23;20024;-77
2023/09/22 00:53:26;;;;;;;3.88;2.40;;;14.80;90.80;;;;;;6157942;23;20013;-78
2023/09/22 00:55:53;;;;;;;3.50;2.20;;;14.80;90.80;;;;;;6182739;23;20377;-77
2023/09/22 00:58:19;;;;;;;3.60;2.22;;;14.80;90.80;;;;;;6185562;23;20430;-78
2023/09/22 01:00:48;;;;;;;3.72;2.38;;;14.80;90.90;;;;;;6158886;23;20008;-78
2023/09/22 01:03:14;;;;;;;3.72;2.40;;;14.80;90.90;;;;;;6184017;23;20088;-77
2023/09/22 01:05:40;;;;;;;4.10;2.40;;;14.70;90.90;;;;;;6158226;23;20004;-77
2023/09/22 01:08:06;;;;;;;3.42;1.90;;;14.70;90.90;;;;;;6183919;23;19997;-77
2023/09/22 01:10:42;;;;;;;3.63;2.33;;;14.70;90.90;;;;;;6160727;23;20334;-77
2023/09/22 01:13:09;;;;;;;4.47;2.70;;;14.70;90.90;;;;;;6183005;23;20008;-76
2023/09/22 01:15:36;;;;;;;4.82;3.20;;;14.70;90.90;;;;;;6182971;23;20009;-79
2023/09/22 01:18:04;;;;;;;4.55;2.65;;;14.70;90.90;;;;;;6185005;23;20379;-77
2023/09/22 01:20:30;;;;;;;4.38;2.50;;;14.70;90.90;;;;;;6160085;23;20021;-78
2023/09/22 01:22:56;;;;;;;4.53;2.42;;;14.70;90.90;;;;;;6186036;23;20092;-77
2023/09/22 01:25:22;;;;;;;4.25;2.55;;;14.60;90.80;;;;;;6158180;23;19997;-78
2023/09/22 01:27:48;;;;;;;4.95;2.60;;;14.60;90.90;;;;;;6184576;23;19997;-77
2023/09/22 01:30:14;;;;;;;3.85;2.30;;;14.50;90.90;;;;;;6183847;23;20078;-77
2023/09/22 01:32:40;;;;;;;3.83;2.38;;;14.50;90.90;;;;;;6186126;23;20333;-77
2023/09/22 01:35:07;;;;;;;4.22;2.50;;;14.40;90.90;;;;;;6160020;23;20373;-77
2023/09/22 01:37:39;;;;;;;4.40;2.53;;;14.40;90.90;;;;;;6185140;23;20009;-77
2023/09/22 01:40:05;;;;;;;4.30;2.38;;;14.40;90.90;;;;;;6185089;23;20016;-77
2023/09/22 01:42:31;;;;;;;3.40;2.00;;;14.40;90.90;;;;;;6186302;23;20013;-77
2023/09/22 01:44:57;;;;;;;3.25;1.92;;;14.30;90.90;;;;;;6184054;23;20028;-77
2023/09/22 01:47:23;;;;;;;4.35;2.47;;;14.40;91.00;;;;;;6183847;23;20002;-78
2023/09/22 01:49:48;;;;;;;4.25;2.38;;;14.30;90.90;;;;;;6183352;23;20008;-77
2023/09/22 01:52:14;;;;;;;4.47;2.63;;;14.30;90.90;;;;;;6158706;23;20073;-77
2023/09/22 01:54:40;;;;;;;3.47;2.35;;;14.30;90.90;;;;;;6183065;23;20080;-77
2023/09/22 01:57:06;;;;;;;3.63;2.20;;;14.20;90.90;;;;;;6185451;23;20377;-78
2023/09/22 01:59:31;;;;;;;3.63;2.05;;;14.20;90.90;;;;;;6183377;23;20051;-77
2023/09/22 02:01:57;;;;;;;3.03;1.90;;;14.10;90.90;;;;;;6185744;23;20313;-78
2023/09/22 02:04:23;;;;;;;3.38;1.95;;;14.10;91.00;;;;;;6185528;23;19998;-79
2023/09/22 02:06:49;;;;;;;4.13;1.95;;;14.10;91.00;;;;;;6135739;23;20009;-78
2023/09/22 02:09:15;;;;;;;2.83;1.58;;;14.00;91.00;;;;;;6161095;23;20373;-78
2023/09/22 02:11:41;;;;;;;3.17;1.85;;;14.00;91.00;;;;;;6184837;23;20497;-78
2023/09/22 02:14:07;;;;;;;3.33;1.80;;;14.00;91.00;;;;;;6186863;23;19997;-78
2023/09/22 02:16:33;;;;;;;2.17;1.50;;;13.90;91.00;;;;;;6186783;23;20005;-78
2023/09/22 02:18:59;;;;;;;3.00;1.73;;;13.90;91.10;;;;;;6188826;23;20029;-78
2023/09/22 02:21:27;;;;;;;2.67;1.40;;;13.90;91.10;;;;;;6160959;23;19997;-78
2023/09/22 02:23:53;;;;;;;2.00;1.30;;;13.80;91.10;;;;;;6186472;23;20016;-78
2023/09/22 02:26:19;;;;;;;1.90;1.30;;;13.80;91.10;;;;;;6187246;23;20024;-78
2023/09/22 02:28:45;;;;;;;2.60;1.40;;;13.80;91.10;;;;;;6185308;23;20425;-78
2023/09/22 02:31:12;;;;;;;3.25;1.52;;;13.80;91.10;;;;;;6187234;23;19997;-78
2023/09/22 02:33:38;;;;;;;2.60;1.60;;;13.70;91.10;;;;;;6187468;23;20028;-78
2023/09/22 02:36:05;;;;;;;2.28;1.42;;;13.70;91.20;;;;;;6161748;23;20012;-78
2023/09/22 02:38:31;;;;;;;2.30;1.50;;;13.60;91.20;;;;;;6188018;23;20075;-78
2023/09/22 02:40:57;;;;;;;2.05;1.42;;;13.60;91.20;;;;;;6189223;23;20009;-78
2023/09/22 02:43:22;;;;;;;1.50;1.10;;;13.60;91.20;;;;;;6187837;23;20330;-79
2023/09/22 02:45:50;;;;;;;2.30;1.52;;;13.50;91.20;;;;;;6185626;23;20009;-78
2023/09/22 02:48:15;;;;;;;2.03;1.17;;;13.60;91.20;;;;;;6188112;23;20001;-78
2023/09/22 02:50:41;;;;;;;1.60;1.05;;;13.60;91.10;;;;;;6187585;23;20491;-78
2023/09/22 02:53:07;;;;;;;1.85;1.20;;;13.60;91.40;;;;;;6189680;23;20005;-78
2023/09/22 02:55:37;;;;;;;1.83;1.08;;;13.60;91.10;;;;;;6190894;23;20001;-78
2023/09/22 02:58:03;;;;;;;2.25;1.15;;;13.60;91.10;;;;;;6182705;23;20028;-78
2023/09/22 03:00:30;;;;;;;1.63;1.00;;;13.50;91.10;;;;;;6188306;23;20001;-78
2023/09/22 03:02:56;;;;;;;1.83;1.00;;;13.50;91.10;;;;;;6190396;23;20020;-77
2023/09/22 03:05:22;;;;;;;1.02;0.90;;;13.50;91.10;;;;;;6189094;23;19997;-78
2023/09/22 03:07:50;;;;;;;1.80;1.15;;;13.40;91.10;;;;;;6186449;23;19997;-78
2023/09/22 03:10:15;;;;;;;1.83;1.00;;;13.40;91.10;;;;;;6186842;23;20001;-78
2023/09/22 03:12:42;;;;;;;1.17;0.90;;;13.40;91.10;;;;;;6189099;23;20009;-77
2023/09/22 03:15:10;;;;;;;1.27;0.98;;;13.40;91.10;;;;;;6167829;23;20002;-78
2023/09/22 03:17:36;;;;;;;1.10;0.90;;;13.40;91.10;;;;;;6192952;23;20005;-77
2023/09/22 03:20:06;;;;;;;1.65;1.08;;;13.40;91.10;;;;;;6189110;23;20001;-78
2023/09/22 03:22:33;;;;;;;0.80;0.70;;;13.40;91.40;;;;;;6187357;23;20013;-78
2023/09/22 03:24:58;;;;;;;1.40;0.80;;;13.40;91.10;;;;;;6186164;23;20005;-78
2023/09/22 03:27:24;;;;;;;1.02;0.80;;;13.40;91.10;;;;;;6185769;23;20326;-78
2023/09/22 03:29:50;;;;;;;1.55;1.05;;;13.40;91.00;;;;;;6187573;23;20004;-78
2023/09/22 03:32:18;;;;;;;1.27;0.90;;;13.40;91.00;;;;;;6186999;23;20114;-78
2023/09/22 03:34:47;;;;;;;1.52;1.00;;;13.40;91.00;;;;;;6187662;23;20018;-78
2023/09/22 03:37:13;;;;;;;1.58;1.05;;;13.40;91.00;;;;;;6185085;23;20004;-78
2023/09/22 03:39:39;;;;;;;1.40;0.93;;;13.50;91.00;;;;;;6184959;23;20072;-80
2023/09/22 03:42:06;;;;;;;1.70;1.00;;;13.50;91.00;;;;;;6185894;23;20462;-78
2023/09/22 03:44:33;;;;;;;1.50;0.90;;;13.40;91.00;;;;;;6184165;23;20333;-78
2023/09/22 03:46:59;;;;;;;1.77;0.80;;;13.40;91.00;;;;;;6159374;23;20005;-78
2023/09/22 03:49:25;;;;;;;1.70;1.00;;;13.50;91.00;;;;;;6184324;23;20010;-78
2023/09/22 03:51:51;;;;;;;1.85;1.17;;;13.50;91.00;;;;;;6160096;23;19997;-78
2023/09/22 03:54:17;;;;;;;1.42;1.00;;;13.50;91.00;;;;;;6185162;23;20421;-78
2023/09/22 03:56:43;;;;;;;1.67;0.88;;;13.40;91.00;;;;;;6185799;23;19997;-78
2023/09/22 03:59:11;;;;;;;2.22;1.20;;;13.50;91.00;;;;;;6159664;23;19998;-78
2023/09/22 04:01:37;;;;;;;1.48;0.88;;;13.50;91.00;;;;;;6161197;23;20002;-79
2023/09/22 04:04:04;;;;;;;1.65;0.93;;;13.40;91.00;;;;;;6190694;23;20377;-78
2023/09/22 04:06:30;;;;;;;1.25;0.93;;;13.50;91.00;;;;;;6184174;23;20024;-77
2023/09/22 04:08:57;;;;;;;1.85;0.93;;;13.40;90.90;;;;;;6161043;23;20001;-77
2023/09/22 04:11:22;;;;;;;2.05;1.08;;;13.50;91.00;;;;;;6186781;23;20016;-77
2023/09/22 04:13:48;;;;;;;1.50;0.90;;;13.50;90.90;;;;;;6185906;23;20001;-77
2023/09/22 04:16:14;;;;;;;1.95;1.20;;;13.50;91.20;;;;;;6184762;23;20005;-77
2023/09/22 04:18:40;;;;;;;2.17;1.30;;;13.50;90.90;;;;;;6184963;23;20314;-77
2023/09/22 04:21:07;;;;;;;1.30;1.15;;;13.50;90.90;;;;;;6185790;23;20009;-76
2023/09/22 04:23:35;;;;;;;3.20;1.17;;;13.50;90.90;;;;;;6184523;23;20013;-76
2023/09/22 04:26:09;;;;;;;2.20;1.30;;;13.50;90.90;;;;;;6159717;23;20456;-77
2023/09/22 04:28:36;;;;;;;2.03;1.27;;;13.50;90.90;;;;;;6185049;23;20084;-77
2023/09/22 04:31:01;;;;;;;1.90;1.23;;;13.50;90.80;;;;;;6186525;23;20001;-76
2023/09/22 04:33:27;;;;;;;3.40;1.60;;;13.60;90.80;;;;;;6186789;23;20036;-76
2023/09/22 04:35:53;;;;;;;2.28;1.40;;;13.60;90.80;;;;;;6187752;23;20004;-76
2023/09/22 04:38:18;;;;;;;2.15;1.55;;;13.60;90.80;;;;;;6187578;23;20011;-76
2023/09/22 04:40:45;;;;;;;2.45;1.33;;;13.60;90.80;;;;;;6187473;23;20007;-77
2023/09/22 04:43:12;;;;;;;2.05;1.30;;;13.60;90.80;;;;;;6135334;23;20009;-77
2023/09/22 04:45:40;;;;;;;2.65;1.27;;;13.60;90.70;;;;;;6159807;23;20442;-77
2023/09/22 04:48:07;;;;;;;1.95;1.05;;;13.70;90.70;;;;;;6184670;23;20044;-77
2023/09/22 04:50:33;;;;;;;2.65;1.17;;;13.70;90.70;;;;;;6183777;23;20008;-76
2023/09/22 04:53:00;;;;;;;2.75;1.00;;;13.70;90.70;;;;;;6185632;23;20338;-76
2023/09/22 04:55:26;;;;;;;1.58;1.00;;;13.70;90.70;;;;;;6184557;23;20005;-77
2023/09/22 04:57:52;;;;;;;1.85;1.10;;;13.70;90.70;;;;;;6159334;23;20009;-76
2023/09/22 05:00:22;;;;;;;1.38;0.85;;;13.70;90.60;;;;;;6185510;23;20464;-77
2023/09/22 05:02:47;;;;;;;1.20;0.90;;;13.70;90.60;;;;;;6159692;23;20367;-76
2023/09/22 05:05:18;;;;;;;1.02;0.90;;;13.80;90.70;;;;;;6135113;23;20004;-77
2023/09/22 05:07:44;;;;;;;;;;;13.80;90.60;;;;;;6187945;23;19993;-77
2023/09/22 05:10:11;;;;;;;1.88;1.08;;;13.80;90.60;;;;;;6185340;23;19916;-76
2023/09/22 05:12:37;;;;;;;1.27;1.00;;;13.80;90.60;;;;;;6186083;23;20001;-76
2023/09/22 05:15:04;;;;;;;2.05;1.20;;;13.80;90.60;;;;;;6188432;23;20009;-76
2023/09/22 05:17:30;;;;;;;1.63;1.02;;;13.80;90.60;;;;;;6161661;23;20036;-76
2023/09/22 05:19:57;;;;;;;1.58;1.02;;;13.70;90.60;;;;;;6184832;23;20048;-75
2023/09/22 05:22:24;;;;;;;1.48;1.05;;;13.70;90.60;;;;;;6182220;23;20450;-75
2023/09/22 05:24:50;;;;;;;1.45;1.00;;;13.70;90.60;;;;;;6182382;23;20009;-76
2023/09/22 05:27:16;;;;;;;1.50;1.00;;;13.70;90.60;;;;;;6182060;23;20001;-75
2023/09/22 05:29:42;;;;;;;1.20;0.95;;;13.70;90.70;;;;;;6182043;23;19997;-76
2023/09/22 05:32:09;;;;;;;1.40;0.90;;;13.70;90.70;;;;;;6183590;23;20008;-76
2023/09/22 05:34:37;;;;;;;1.05;0.82;;;13.70;90.70;;;;;;6183982;23;20017;-76
2023/09/22 05:37:02;;;;;;;1.77;0.90;;;13.70;90.80;;;;;;6181724;23;20016;-75
2023/09/22 05:39:28;;;;;;;1.98;1.25;;;13.70;90.80;;;;;;6183750;23;20334;-76
2023/09/22 05:41:54;;;;;;;0.95;0.80;;;13.70;90.80;;;;;;6182136;23;20373;-76
2023/09/22 05:44:20;;;;;;;1.70;1.00;;;13.60;90.80;;;;;;6182319;23;20084;-76
2023/09/22 05:46:45;;;;;;;1.20;1.10;;;13.50;90.80;;;;;;6184415;23;20052;-76
2023/09/22 05:49:14;;;;;;;1.35;1.10;;;13.50;90.80;;;;;;6182615;23;20001;-76
2023/09/22 05:51:41;;;;;;;1.90;1.00;;;13.60;90.80;;;;;;6158485;23;20008;-76
2023/09/22 05:54:07;;;;;;;2.15;1.13;;;13.60;90.90;;;;;;6182482;23;20002;-75
2023/09/22 05:56:34;;;;;;;1.30;1.15;;;13.50;90.80;;;;;;6183924;23;20016;-75
2023/09/22 05:59:01;;;;;;;1.27;0.90;;;13.60;90.90;;;;;;6183989;23;20009;-76
2023/09/22 06:01:27;;;;;;;0.80;0.80;;;13.50;90.80;;;;;;6183560;23;20005;-76
2023/09/22 06:03:53;;;;;;;1.30;0.85;;;13.60;90.80;;;;;;6181849;23;20559;-76
2023/09/22 06:06:19;;;;;;;1.75;0.90;;;13.50;90.80;;;;;;6183158;23;20004;-76
2023/09/22 06:08:46;;;;;;;1.73;0.93;;;13.50;90.80;;;;;;6181787;23;20005;-75
2023/09/22 06:11:13;;;;;;;1.67;0.80;;;13.50;90.80;;;;;;6182612;23;20012;-75
2023/09/22 06:13:40;;;;;;;1.58;1.00;;;13.60;90.80;;;;;;6157090;23;20437;-76
2023/09/22 06:16:06;;;;;;;1.05;0.88;;;13.60;90.80;;;;;;6181559;23;20021;-76
2023/09/22 06:18:32;;;;;;;1.30;0.90;;;13.50;90.80;;;;;;6181618;23;20013;-75
2023/09/22 06:21:00;;;;;;;2.38;1.00;;;13.50;90.80;;;;;;6157027;23;20089;-75
2023/09/22 06:23:28;;;;;;;1.45;0.90;;;13.60;90.80;;;;;;6157021;23;20025;-75
2023/09/22 06:26:00;;;;;;;1.02;0.90;;;13.60;90.70;;;;;;6156818;23;20056;-75
2023/09/22 06:28:25;;;;;;;0.82;0.80;;;13.60;90.70;;;;;;6182791;23;19998;-76
2023/09/22 06:30:52;;;;;;;0.80;0.60;;;13.60;90.70;;;;;;6181412;23;20012;-76
2023/09/22 06:33:18;;;;;;;0.70;0.70;;;13.70;90.70;;;;;;6157168;23;20084;-75
2023/09/22 06:35:46;;;;;;;1.25;0.73;;;13.80;90.70;;;;;;6181626;23;20503;-76
2023/09/22 06:38:13;;;;;;;0.88;0.70;;;13.70;90.70;;;;;;6183054;23;20869;-75
2023/09/22 06:40:39;;;;;;;1.60;1.00;;;13.70;90.70;;;;;;6183858;23;20005;-75
2023/09/22 06:43:33;;;;;;;0.63;0.60;;;13.80;90.70;;;;;;6131936;23;20463;-79
2023/09/22 06:46:03;;;;;;;0.77;0.70;;;13.70;90.60;;;;;;6181835;23;20343;-77
2023/09/22 06:48:56;;;;;;;0.83;0.60;;;13.80;90.60;;;;;;6132922;23;20067;-76
2023/09/22 06:51:22;;;;;;;0.52;0.50;;;13.90;90.60;;;;;;6183209;23;20017;-75
2023/09/22 06:53:48;;;;;;;0.70;0.70;;;13.90;90.50;;;;;;6156666;23;20012;-76
2023/09/22 06:56:13;;;;;;;0.80;0.80;;;13.90;90.50;;;;;;6156438;23;20009;-76
2023/09/22 06:58:40;;;;;;;1.00;0.80;;;13.90;90.50;;;;;;6156869;23;20446;-75
2023/09/22 07:01:10;;;;;;;0.80;0.65;;;13.90;90.40;;;;;;6181406;23;20009;-76
2023/09/22 07:03:37;;;;;;;1.83;0.95;;;13.90;90.40;;;;;;6157003;23;20341;-77
2023/09/22 07:06:06;;;;;;;1.42;0.93;;;14.00;90.40;;;;;;6184760;23;20004;-76
2023/09/22 07:08:31;;;;;;;1.50;0.82;;;14.00;90.40;;;;;;6158428;23;20001;-77
2023/09/22 07:11:03;;;;;;;0.80;0.68;;;14.10;90.40;;;;;;6185131;23;20001;-77
2023/09/22 07:13:29;;;;;;;0.68;0.60;;;14.10;90.40;;;;;;6189331;23;20005;-77
2023/09/22 07:16:01;;;;;;;2.08;0.90;;;14.10;90.40;;;;;;6189879;23;20088;-78
2023/09/22 07:18:27;;;;;;;0.82;0.70;;;14.20;90.40;;;;;;6170329;23;20005;-78
2023/09/22 07:21:01;;;;;;;1.20;0.70;;;14.20;90.30;;;;;;6170024;23;20005;-80
2023/09/22 07:23:34;;;;;;;1.25;0.70;;;14.20;90.30;;;;;;6138137;23;20021;-79
2023/09/22 07:26:03;;;;;;;0.80;0.70;;;14.30;90.30;;;;;;6163692;23;20066;-78
2023/09/22 07:28:30;;;;;;;1.35;0.73;;;14.50;90.20;;;;;;6160808;23;20008;-78
2023/09/22 07:30:56;;;;;;;1.52;0.90;;;14.50;90.10;;;;;;6184963;23;20092;-77
2023/09/22 07:33:30;;;;;;;0.50;0.50;;;14.40;90.00;;;;;;6186901;23;20040;-80
2023/09/22 07:35:58;;;;;;;0.70;0.55;;;14.40;90.00;;;;;;6167567;23;20037;-78
2023/09/22 07:38:25;;;;;;;1.02;0.80;;;14.50;90.10;;;;;;6188513;23;20005;-76
2023/09/22 07:40:51;;;;;;;0.93;0.70;;;14.50;90.10;;;;;;6190474;23;20009;-76
2023/09/22 07:43:16;;;;;;;1.13;0.70;;;14.40;90.10;;;;;;6190711;23;20013;-76
2023/09/22 07:45:45;;;;;;;1.08;0.70;;;14.40;90.10;;;;;;6185717;23;20433;-77
2023/09/22 07:48:12;;;;;;;1.50;0.70;;;14.50;90.10;;;;;;6185229;23;20025;-77
2023/09/22 07:50:40;;;;;;;1.35;0.75;;;14.50;90.10;;;;;;6161276;23;20010;-79
2023/09/22 07:53:40;;;;;;;1.00;0.65;;;14.50;90.00;;;;;;6137651;23;20013;-79
2023/09/22 07:59:02;;;;;;;0.98;0.60;;;14.60;90.00;;;;;;6102752;23;20052;-75
2023/09/22 08:01:30;;;;;;;1.00;0.90;;;14.60;89.90;;;;;;6107745;23;20013;-78
2023/09/22 08:03:59;;;;;;;1.52;0.68;;;14.70;89.80;;;;;;6104898;23;20058;-81
2023/09/22 08:06:54;;;;;;;1.08;0.70;;;14.70;89.60;;;;;;6101122;23;20025;-82
2023/09/22 08:09:28;;;;;;;0.60;0.55;;;14.70;89.50;;;;;;6056956;23;20013;-82
2023/09/22 08:11:57;;;;;;;0.60;0.60;;;14.70;89.40;;;;;;6009352;23;20015;-76
2023/09/22 08:14:26;;;;;;;0.68;0.60;;;14.80;89.40;;;;;;5984752;23;20091;-81
2023/09/22 08:16:59;;;;;;;1.38;0.80;;;14.90;89.20;;;;;;5986820;23;20008;-79
2023/09/22 08:19:36;;;;;;;0.52;0.52;;;14.90;89.00;;;;;;5988323;23;20464;-81
2023/09/22 08:22:15;;;;;;;0.63;0.60;;;15.00;88.90;;;;;;5960511;23;20494;-80
2023/09/22 08:25:22;;;;;;;0.60;0.60;;;15.00;88.70;;;;;;5984471;23;20011;-80
2023/09/22 08:31:07;;;;;;;0.73;0.50;;;15.00;88.70;;;;;;5944302;24;20020;-79
2023/09/22 08:33:35;;;;;;;1.35;0.70;;;15.00;88.70;;;;;;5947033;24;20027;-78
2023/09/22 08:36:01;;;;;;;0.57;0.47;;;15.10;88.60;;;;;;5969221;23;20082;-79
2023/09/22 08:38:37;;;;;;;1.13;0.55;;;15.20;88.60;;;;;;6009875;23;20003;-80
2023/09/22 08:41:11;;;;;;;0.82;0.60;;;15.10;88.40;;;;;;5956839;23;20019;-80
2023/09/22 08:43:45;;;;;;;0.40;0.40;;;15.10;88.40;;;;;;5957228;23;20020;-80
2023/09/22 08:46:14;;;;;;;0.50;0.40;;;15.20;88.40;;;;;;5927334;24;20509;-78
2023/09/22 08:48:40;;;;;;;0.77;0.35;;;15.30;88.40;;;;;;5957240;23;20496;-78
2023/09/22 08:51:40;;;;;;;0.40;0.40;;;15.30;88.20;;;;;;5982340;23;20065;-79
2023/09/22 08:54:11;;;;;;;0.73;0.35;;;15.40;88.00;;;;;;5902170;24;20092;-79
2023/09/22 08:57:14;;;;;;;0.83;0.40;;;15.40;87.80;;;;;;5946385;24;20047;-80
2023/09/22 08:59:43;;;;;;;0.40;0.40;;;15.60;87.60;;;;;;5869298;24;20255;-78
2023/09/22 09:02:11;;;;;;;0.55;0.40;;;15.60;87.50;;;;;;5910400;24;20077;-76
2023/09/22 09:04:40;;;;;;;0.88;0.50;;;15.80;87.30;;;;;;5950845;23;20096;-77
2023/09/22 09:07:27;;;;;;;0.50;0.47;;;15.70;87.00;;;;;;5994888;23;20009;-80
2023/09/22 09:10:47;;;;;;;0.47;0.47;;;15.70;86.90;;;;;;5971773;23;20028;-81
2023/09/22 09:13:28;;;;;;;0.45;0.30;;;15.70;87.10;;;;;;5993078;23;20039;-80
2023/09/22 09:19:15;;;;;;;0.40;0.40;;;15.60;87.10;;;;;;5915076;24;20036;-81
2023/09/22 09:26:00;;;;;;;0.32;0.30;;;15.70;87.00;;;;;;5867330;24;20049;-82
2023/09/22 09:28:29;;;;;;;0.25;0.25;;;15.70;86.80;;;;;;5819099;24;20458;-82
2023/09/22 09:30:58;;;;;;;0.50;0.30;;;15.70;86.80;;;;;;5876891;24;20017;-79
2023/09/22 09:34:14;;;;;;;0.30;0.30;;;15.70;86.80;;;;;;5900009;24;20021;-81
2023/09/22 09:37:13;;;;;;;0.43;0.40;;;15.70;86.70;;;;;;5861123;24;20021;-81
2023/09/22 09:40:21;;;;;;;0.38;0.38;;;15.80;86.60;;;;;;5868069;24;20118;-77
2023/09/22 09:42:57;;;;;;;0.52;0.20;;;15.90;86.50;;;;;;5811160;24;20053;-81
2023/09/22 09:46:25;;;;;;;0.80;0.30;;;16.00;86.20;;;;;;5844504;24;20029;-80
2023/09/22 09:49:32;;;;;;;0.57;0.40;;;16.10;85.90;;;;;;5838043;24;20026;-77
2023/09/22 09:55:27;;;;;;;0.40;0.30;;;16.20;85.60;;;;;;5740327;24;20066;-80
2023/09/22 09:58:35;;;;;;;0.57;0.30;;;16.20;85.50;;;;;;5715604;24;20970;-81
2023/09/22 10:01:10;;;;;;;0.68;0.40;;;16.20;85.50;;;;;;5801481;24;20465;-78
2023/09/22 10:03:43;;;;;;;0.43;0.30;;;16.20;85.50;;;;;;5784275;24;20019;-78
2023/09/22 10:06:13;;;;;;;0.43;0.30;;;16.20;85.60;;;;;;5871976;24;20378;-77
2023/09/22 10:11:26;;;;;;;0.40;0.40;;;16.10;85.50;;;;;;5823239;24;20014;-79
2023/09/22 10:13:54;;;;;;;0.40;0.40;;;16.00;85.60;;;;;;5857531;24;20030;-80
2023/09/22 10:16:33;;;;;;;0.50;0.30;;;16.00;85.80;;;;;;5860413;24;20041;-81
2023/09/22 10:19:41;;;;;;;0.38;0.30;;;15.90;85.80;;;;;;5897887;23;20031;-80
2023/09/22 10:22:12;;;;;;;0.73;0.32;;;16.00;85.80;;;;;;5952857;24;20013;-77
2023/09/22 10:24:38;;;;;;;;;;;16.10;85.60;;;;;;5952790;24;20073;-77
2023/09/22 10:27:31;;;;;;;0.60;0.35;;;16.10;85.30;;;;;;6063853;23;19906;-83
2023/09/22 10:29:59;;;;;;;0.28;0.20;;;16.10;85.30;;;;;;6050180;23;20015;-79
2023/09/22 10:32:27;;;;;;;0.52;0.50;;;16.00;85.10;;;;;;6030319;23;20033;-79
2023/09/22 10:35:06;;;;;;;0.50;0.40;;;16.00;85.30;;;;;;5993933;23;20112;-79
2023/09/22 10:37:35;;;;;;;0.82;0.30;;;16.00;85.30;;;;;;5968137;23;20023;-78
2023/09/22 10:40:09;;;;;;;0.40;0.30;;;16.00;86.00;;;;;;5978013;23;20066;-79
2023/09/22 10:42:46;;;;;;;0.45;0.45;;;16.00;85.20;;;;;;6061654;23;20026;-81
2023/09/22 10:45:13;;;;;;;0.30;0.30;;;16.10;85.10;;;;;;6049407;23;20015;-79
2023/09/22 10:47:42;;;;;;;0.17;0.17;;;16.10;85.00;;;;;;6039656;23;20003;-79
2023/09/22 10:50:31;;;;;;;0.40;0.40;;;16.20;84.80;;;;;;6039177;23;20007;-80
2023/09/22 10:53:02;;;;;;;0.30;0.20;;;16.30;84.40;;;;;;6044033;23;20551;-78
2023/09/22 10:55:36;;;;;;;0.63;0.30;;;16.30;84.20;;;;;;6039372;23;20150;-77
2023/09/22 10:58:04;;;;;;;0.38;0.30;;;16.30;84.10;;;;;;6086745;23;20089;-76
2023/09/22 11:00:32;;;;;;;2.72;0.30;;;16.40;84.00;;;;;;6135347;23;20010;-77
2023/09/22 11:03:06;;;;;;;0.30;0.25;;;16.50;83.80;;;;;;6108245;23;20018;-75
2023/09/22 11:05:34;;;;;;;0.85;0.30;;;16.50;83.70;;;;;;6120019;23;20012;-77
2023/09/22 11:08:01;;;;;;;0.30;0.30;;;16.60;83.40;;;;;;6132068;23;20009;-78
2023/09/22 11:10:27;;;;;;;2.45;0.50;;;16.70;83.10;;;;;;6156136;23;20005;-77
2023/09/22 11:12:54;;;;;;;0.20;0.20;;;16.80;82.80;;;;;;6156730;23;20005;-78
2023/09/22 11:15:21;;;;;;;0.73;0.30;;;16.90;82.70;;;;;;6132355;23;20025;-77
2023/09/22 11:17:47;;;;;;;0.35;0.35;;;16.90;82.50;;;;;;6108386;23;20011;-77
2023/09/22 11:20:21;;;;;;;0.25;0.25;;;16.90;82.40;;;;;;6133184;23;20005;-77
2023/09/22 11:22:47;;;;;;;0.20;0.20;;;16.90;82.40;;;;;;6134684;23;20036;-78
2023/09/22 11:25:13;;;;;;;0.55;0.40;;;17.00;82.60;;;;;;6184361;23;20028;-78
2023/09/22 11:27:45;;;;;;;0.90;0.32;;;17.10;82.40;;;;;;6157600;23;20084;-77
2023/09/22 11:30:14;;;;;;;0.55;0.40;;;17.30;82.10;;;;;;6184155;23;19997;-77
2023/09/22 11:32:43;;;;;;;0.52;0.30;;;17.30;81.70;;;;;;6157574;23;20009;-77
2023/09/22 11:35:11;;;;;;;0.30;0.30;;;17.30;81.70;;;;;;6133951;23;20055;-78
2023/09/22 11:37:38;;;;;;;0.50;0.30;;;17.20;82.00;;;;;;6134863;23;20001;-78
2023/09/22 11:40:22;;;;;;;0.40;0.30;;;17.20;81.90;;;;;;6108882;23;20009;-78
2023/09/22 11:42:48;;;;;;;0.45;0.20;;;17.20;81.90;;;;;;6183876;23;20025;-77
2023/09/22 11:45:25;;;;;;;1.35;0.40;;;17.10;82.00;;;;;;6162961;23;20001;-78
2023/09/22 11:48:24;;;;;;;0.30;0.30;;;17.00;82.00;;;;;;6143570;23;20095;-79
2023/09/22 11:50:56;;;;;;;0.30;0.30;;;16.90;82.30;;;;;;6094730;23;20010;-79
2023/09/22 11:53:22;;;;;;;0.30;0.30;;;16.80;82.50;;;;;;6090647;23;20097;-78
2023/09/22 11:55:48;;;;;;;0.73;0.38;;;16.80;82.50;;;;;;6094529;23;20101;-79
2023/09/22 11:58:16;;;;;;;0.30;0.30;;;16.70;82.60;;;;;;6094852;23;20062;-80
2023/09/22 12:00:43;;;;;;;0.85;0.40;;;16.70;82.90;;;;;;6099195;23;20042;-79
2023/09/22 12:03:12;;;;;;;0.70;0.30;;;16.80;82.60;;;;;;6098809;23;20510;-80
2023/09/22 12:05:38;;;;;;;0.68;0.38;;;17.00;82.60;;;;;;6076932;23;20026;-78
2023/09/22 12:12:25;;;;;;;0.75;0.50;;;17.00;81.80;;;;;;6036217;23;20089;-79
2023/09/22 12:14:50;;;;;;;0.30;0.30;;;17.00;81.80;;;;;;5849776;24;20006;-78
2023/09/22 12:17:28;;;;;;;0.30;0.30;;;16.90;81.80;;;;;;5865069;24;20079;-81
2023/09/22 12:33:06;;;;;;;0.40;0.40;;;17.40;80.60;;;;;;5673130;25;20048;-78
2023/09/22 12:39:10;;;;;;;1.10;0.30;;;17.30;80.70;;;;;;5668241;25;20048;-78
2023/09/22 12:41:36;;;;;;;0.80;0.40;;;17.30;80.90;;;;;;5627704;25;20019;-79
2023/09/22 12:44:22;;;;;;;0.30;0.30;;;17.30;80.90;;;;;;5634202;25;20877;-81
2023/09/22 12:51:33;;;;;;;1.05;0.55;;;17.30;80.80;;;;;;5633255;25;20037;-83
2023/09/22 12:57:40;;;;;;;0.30;0.30;;;17.30;80.90;;;;;;5703709;25;20397;-82
2023/09/22 13:03:45;;;;;;;0.40;0.20;;;17.30;80.90;;;;;;5704867;25;20032;-81
2023/09/22 13:06:16;;;;;;;0.20;0.20;;;17.30;81.00;;;;;;5720145;24;20147;-80
2023/09/22 13:08:42;;;;;;;0.20;0.20;;;17.30;80.80;;;;;;5791446;24;20111;-77
2023/09/22 13:11:08;;;;;;;0.20;0.20;;;17.40;80.80;;;;;;5833742;24;20002;-78
2023/09/22 13:13:36;;;;;;;0.20;0.20;;;17.40;80.60;;;;;;5842093;24;20440;-79
2023/09/22 13:16:04;;;;;;;0.30;0.30;;;17.50;80.60;;;;;;5871271;24;20014;-79
2023/09/22 13:18:55;;;;;;;0.30;0.30;;;17.50;80.60;;;;;;5810053;24;20154;-79
2023/09/22 13:21:25;;;;;;;0.22;0.22;;;17.50;80.50;;;;;;5903246;24;20014;-79
2023/09/22 13:23:51;;;;;;;0.20;0.20;;;17.40;80.50;;;;;;5882970;24;20086;-78
2023/09/22 13:26:55;;;;;;;0.73;0.30;;;17.50;80.50;;;;;;5847931;24;20516;-82
2023/09/22 13:30:52;;;;;;;0.30;0.20;;;17.40;80.50;;;;;;5851839;24;20104;-79
2023/09/22 13:33:52;;;;;;;0.32;0.30;;;17.40;80.60;;;;;;5814897;24;20173;-82
2023/09/22 13:37:03;;;;;;;0.20;0.20;;;17.40;80.60;;;;;;5812866;24;20027;-81
2023/09/22 13:51:17;;;;;;;0.80;0.40;;;17.70;79.90;;;;;;5654683;25;20104;-80
2023/09/22 13:54:49;;;;;;;1.10;0.40;;;17.80;79.60;;;;;;5639080;25;20032;-78
2023/09/22 13:57:47;;;;;;;0.40;0.30;;;17.70;79.50;;;;;;5655793;25;20032;-78
2023/09/22 14:07:35;;;;;;;0.30;0.30;;;17.50;79.80;;;;;;5597625;25;20033;-79
2023/09/22 14:17:31;;;;;;;0.35;0.20;;;17.50;80.20;;;;;;5607612;25;20054;-79
2023/09/22 15:04:58;;;;;;;0.22;0.20;;;17.40;79.80;;;;;;5688978;25;20044;-76
2023/09/22 15:07:26;;;;;;;0.77;0.30;;;17.40;79.90;;;;;;5677868;25;20016;-76
2023/09/22 15:10:00;;;;;;;0.20;0.20;;;17.50;80.10;;;;;;5720049;24;20027;-78
2023/09/22 15:12:28;;;;;;;0.20;0.20;;;17.40;80.10;;;;;;5718752;24;20072;-78